sensor_id;sensor_type;location;lat;lon;timestamp;pressure;altitude;pressure_sealevel;temperature;humidity
43846;BME280;32485;51.112;13.640;2022-08-11T00:02:32;100962.56;;;21.21;45.36
43846;BME280;32485;51.112;13.640;2022-08-11T00:05:04;100967.31;;;21.24;46.02
43846;BME280;32485;51.112;13.640;2022-08-11T00:07:34;100965.31;;;21.21;45.95
43846;BME280;32485;51.112;13.640;2022-08-11T00:10:12;100962.50;;;21.17;45.99
43846;BME280;32485;51.112;13.640;2022-08-11T00:12:41;100964.78;;;21.12;45.92
43846;BME280;32485;51.112;13.640;2022-08-11T00:15:11;100963.19;;;21.07;46.43
43846;BME280;32485;51.112;13.640;2022-08-11T00:17:38;100968.59;;;21.00;46.66
43846;BME280;32485;51.112;13.640;2022-08-11T00:20:08;100955.16;;;20.95;46.68
43846;BME280;32485;51.112;13.640;2022-08-11T00:22:39;100963.78;;;20.93;46.90
43846;BME280;32485;51.112;13.640;2022-08-11T00:25:10;100966.91;;;20.92;46.94
43846;BME280;32485;51.112;13.640;2022-08-11T00:27:39;100976.22;;;20.87;46.49
43846;BME280;32485;51.112;13.640;2022-08-11T00:30:09;100976.09;;;20.76;46.58
43846;BME280;32485;51.112;13.640;2022-08-11T00:32:39;100974.31;;;20.64;46.79
43846;BME280;32485;51.112;13.640;2022-08-11T00:35:12;100980.47;;;20.58;47.30
43846;BME280;32485;51.112;13.640;2022-08-11T00:37:44;100974.50;;;20.52;47.41
43846;BME280;32485;51.112;13.640;2022-08-11T00:40:24;100981.09;;;20.47;47.52
43846;BME280;32485;51.112;13.640;2022-08-11T00:42:58;100979.41;;;20.39;47.62
43846;BME280;32485;51.112;13.640;2022-08-11T00:45:34;100987.97;;;20.34;48.18
43846;BME280;32485;51.112;13.640;2022-08-11T00:48:13;100979.59;;;20.27;48.70
43846;BME280;32485;51.112;13.640;2022-08-11T00:50:50;100982.78;;;20.29;48.64
43846;BME280;32485;51.112;13.640;2022-08-11T00:53:38;100978.44;;;20.28;48.80
43846;BME280;32485;51.112;13.640;2022-08-11T00:56:43;100983.50;;;20.26;48.86
43846;BME280;32485;51.112;13.640;2022-08-11T00:59:55;100989.28;;;20.20;48.92
43846;BME280;32485;51.112;13.640;2022-08-11T01:02:52;100975.50;;;20.17;49.36
43846;BME280;32485;51.112;13.640;2022-08-11T01:06:17;100982.53;;;20.14;49.33
43846;BME280;32485;51.112;13.640;2022-08-11T01:09:19;100972.59;;;20.06;49.87
43846;BME280;32485;51.112;13.640;2022-08-11T01:12:18;100987.53;;;20.09;50.05
43846;BME280;32485;51.112;13.640;2022-08-11T01:15:36;100981.22;;;20.08;49.55
43846;BME280;32485;51.112;13.640;2022-08-11T01:25:44;100988.00;;;19.91;50.21
43846;BME280;32485;51.112;13.640;2022-08-11T01:28:56;100985.16;;;19.88;50.28
43846;BME280;32485;51.112;13.640;2022-08-11T01:35:31;100984.34;;;19.83;50.61
43846;BME280;32485;51.112;13.640;2022-08-11T01:45:10;100985.31;;;19.75;50.20
43846;BME280;32485;51.112;13.640;2022-08-11T01:47:48;100987.63;;;19.73;51.16
43846;BME280;32485;51.112;13.640;2022-08-11T01:50:39;100975.38;;;19.67;51.27
43846;BME280;32485;51.112;13.640;2022-08-11T01:53:23;100977.25;;;19.63;51.12
43846;BME280;32485;51.112;13.640;2022-08-11T01:56:05;100967.78;;;19.60;51.18
43846;BME280;32485;51.112;13.640;2022-08-11T01:58:41;100972.50;;;19.60;51.31
43846;BME280;32485;51.112;13.640;2022-08-11T02:01:36;100972.03;;;19.58;51.30
43846;BME280;32485;51.112;13.640;2022-08-11T02:04:18;100976.28;;;19.55;51.18
43846;BME280;32485;51.112;13.640;2022-08-11T02:07:02;100979.84;;;19.56;51.17
43846;BME280;32485;51.112;13.640;2022-08-11T02:10:02;100966.78;;;19.49;51.63
43846;BME280;32485;51.112;13.640;2022-08-11T02:12:53;100976.16;;;19.48;51.39
43846;BME280;32485;51.112;13.640;2022-08-11T02:15:28;100971.00;;;19.43;51.25
43846;BME280;32485;51.112;13.640;2022-08-11T02:18:07;100973.63;;;19.39;51.56
43846;BME280;32485;51.112;13.640;2022-08-11T02:20:44;100959.72;;;19.28;51.96
43846;BME280;32485;51.112;13.640;2022-08-11T02:23:42;100971.91;;;19.31;52.08
43846;BME280;32485;51.112;13.640;2022-08-11T02:26:22;100966.28;;;19.24;51.84
43846;BME280;32485;51.112;13.640;2022-08-11T02:29:14;100961.94;;;19.23;52.34
43846;BME280;32485;51.112;13.640;2022-08-11T02:31:55;100968.41;;;19.14;52.44
43846;BME280;32485;51.112;13.640;2022-08-11T02:34:48;100968.41;;;19.14;52.53
43846;BME280;32485;51.112;13.640;2022-08-11T02:37:31;100977.09;;;19.16;52.60
43846;BME280;32485;51.112;13.640;2022-08-11T02:40:17;100979.38;;;19.14;52.40
43846;BME280;32485;51.112;13.640;2022-08-11T02:43:06;100976.22;;;19.12;52.75
43846;BME280;32485;51.112;13.640;2022-08-11T02:45:47;100961.94;;;19.03;52.53
43846;BME280;32485;51.112;13.640;2022-08-11T02:48:49;100972.09;;;19.03;52.72
43846;BME280;32485;51.112;13.640;2022-08-11T02:51:45;100972.59;;;19.08;52.60
43846;BME280;32485;51.112;13.640;2022-08-11T02:54:26;100972.16;;;19.06;52.38
43846;BME280;32485;51.112;13.640;2022-08-11T02:57:03;100976.84;;;19.06;52.43
43846;BME280;32485;51.112;13.640;2022-08-11T02:59:48;100984.28;;;19.05;52.38
43846;BME280;32485;51.112;13.640;2022-08-11T03:02:33;100978.34;;;19.03;52.56
43846;BME280;32485;51.112;13.640;2022-08-11T03:05:21;100982.59;;;19.00;52.78
43846;BME280;32485;51.112;13.640;2022-08-11T03:08:39;100983.69;;;18.96;52.84
43846;BME280;32485;51.112;13.640;2022-08-11T03:11:29;100991.84;;;18.92;52.79
43846;BME280;32485;51.112;13.640;2022-08-11T03:14:30;100999.94;;;18.89;52.93
43846;BME280;32485;51.112;13.640;2022-08-11T03:17:27;100990.41;;;18.82;53.06
43846;BME280;32485;51.112;13.640;2022-08-11T03:20:10;100993.47;;;18.81;53.56
43846;BME280;32485;51.112;13.640;2022-08-11T03:22:51;100995.00;;;18.78;53.45
43846;BME280;32485;51.112;13.640;2022-08-11T03:25:28;101000.47;;;18.78;53.35
43846;BME280;32485;51.112;13.640;2022-08-11T03:28:10;100991.81;;;18.76;53.54
43846;BME280;32485;51.112;13.640;2022-08-11T03:30:50;100997.22;;;18.73;53.63
43846;BME280;32485;51.112;13.640;2022-08-11T03:33:24;100996.69;;;18.67;53.80
43846;BME280;32485;51.112;13.640;2022-08-11T03:36:27;100987.97;;;18.61;53.89
43846;BME280;32485;51.112;13.640;2022-08-11T03:39:11;100979.56;;;18.54;54.14
43846;BME280;32485;51.112;13.640;2022-08-11T03:42:00;100975.88;;;18.46;54.08
43846;BME280;32485;51.112;13.640;2022-08-11T03:44:42;100993.44;;;18.45;54.26
43846;BME280;32485;51.112;13.640;2022-08-11T03:47:44;100993.44;;;18.45;54.27
43846;BME280;32485;51.112;13.640;2022-08-11T03:50:31;100995.38;;;18.45;54.54
43846;BME280;32485;51.112;13.640;2022-08-11T03:53:15;100989.44;;;18.43;54.49
43846;BME280;32485;51.112;13.640;2022-08-11T03:59:47;100983.81;;;18.36;54.60
43846;BME280;32485;51.112;13.640;2022-08-11T04:02:48;100981.88;;;18.36;54.96
43846;BME280;32485;51.112;13.640;2022-08-11T04:05:48;100983.72;;;18.32;54.95
43846;BME280;32485;51.112;13.640;2022-08-11T04:19:21;100971.63;;;18.17;55.52
43846;BME280;32485;51.112;13.640;2022-08-11T04:22:26;100975.59;;;18.20;55.49
43846;BME280;32485;51.112;13.640;2022-08-11T04:28:43;100976.38;;;18.20;55.26
43846;BME280;32485;51.112;13.640;2022-08-11T04:31:33;100977.19;;;18.21;55.58
43846;BME280;32485;51.112;13.640;2022-08-11T04:34:50;100979.06;;;18.17;55.65
43846;BME280;32485;51.112;13.640;2022-08-11T04:37:47;100985.41;;;18.21;55.38
43846;BME280;32485;51.112;13.640;2022-08-11T04:40:54;100986.19;;;18.21;55.48
43846;BME280;32485;51.112;13.640;2022-08-11T04:47:28;100987.25;;;18.17;55.52
43846;BME280;32485;51.112;13.640;2022-08-11T04:50:29;100970.03;;;18.16;55.39
43846;BME280;32485;51.112;13.640;2022-08-11T04:53:41;100985.06;;;18.22;55.34
43846;BME280;32485;51.112;13.640;2022-08-11T04:56:32;100975.78;;;18.27;55.43
43846;BME280;32485;51.112;13.640;2022-08-11T04:59:37;100982.13;;;18.31;55.27
43846;BME280;32485;51.112;13.640;2022-08-11T05:03:33;100975.06;;;18.30;55.34
43846;BME280;32485;51.112;13.640;2022-08-11T05:09:42;100987.34;;;18.36;55.24
43846;BME280;32485;51.112;13.640;2022-08-11T05:12:30;100980.28;;;18.35;55.40
43846;BME280;32485;51.112;13.640;2022-08-11T05:15:03;100987.06;;;18.41;55.04
43846;BME280;32485;51.112;13.640;2022-08-11T05:18:01;100994.13;;;18.42;55.54
43846;BME280;32485;51.112;13.640;2022-08-11T05:20:51;100992.53;;;18.41;55.53
43846;BME280;32485;51.112;13.640;2022-08-11T05:23:45;100987.06;;;18.41;55.25
43846;BME280;32485;51.112;13.640;2022-08-11T05:26:41;101002.53;;;18.49;55.56
43846;BME280;32485;51.112;13.640;2022-08-11T05:29:41;101001.56;;;18.58;55.41
43846;BME280;32485;51.112;13.640;2022-08-11T05:32:39;101001.91;;;18.56;55.19
43846;BME280;32485;51.112;13.640;2022-08-11T05:35:30;101005.59;;;18.64;55.27
43846;BME280;32485;51.112;13.640;2022-08-11T05:37:58;101007.66;;;18.67;55.45
43846;BME280;32485;51.112;13.640;2022-08-11T05:40:50;100996.25;;;18.65;55.24
43846;BME280;32485;51.112;13.640;2022-08-11T05:43:42;101002.84;;;18.64;55.41
43846;BME280;32485;51.112;13.640;2022-08-11T05:46:28;100995.53;;;18.68;54.90
43846;BME280;32485;51.112;13.640;2022-08-11T05:49:14;101005.25;;;18.81;54.79
43846;BME280;32485;51.112;13.640;2022-08-11T05:52:00;101008.59;;;18.91;54.41
43846;BME280;32485;51.112;13.640;2022-08-11T05:54:46;101002.94;;;18.99;54.72
43846;BME280;32485;51.112;13.640;2022-08-11T05:57:36;101006.97;;;19.06;54.54
43846;BME280;32485;51.112;13.640;2022-08-11T06:00:06;101008.63;;;19.10;54.75
43846;BME280;32485;51.112;13.640;2022-08-11T06:02:40;101011.75;;;19.09;54.72
43846;BME280;32485;51.112;13.640;2022-08-11T06:05:09;101005.22;;;19.13;53.92
43846;BME280;32485;51.112;13.640;2022-08-11T06:07:39;101011.25;;;19.23;53.42
43846;BME280;32485;51.112;13.640;2022-08-11T06:10:08;101007.09;;;19.29;53.44
43846;BME280;32485;51.112;13.640;2022-08-11T06:12:37;101004.78;;;19.31;53.14
43846;BME280;32485;51.112;13.640;2022-08-11T06:15:08;101013.97;;;19.39;53.42
43846;BME280;32485;51.112;13.640;2022-08-11T06:17:45;101008.53;;;19.42;53.26
43846;BME280;32485;51.112;13.640;2022-08-11T06:20:14;101010.66;;;19.49;53.08
43846;BME280;32485;51.112;13.640;2022-08-11T06:22:45;101017.88;;;19.57;52.80
43846;BME280;32485;51.112;13.640;2022-08-11T06:25:14;101019.97;;;19.64;52.76
43846;BME280;32485;51.112;13.640;2022-08-11T06:27:44;101013.38;;;19.68;52.36
43846;BME280;32485;51.112;13.640;2022-08-11T06:30:12;101017.50;;;19.78;52.43
43846;BME280;32485;51.112;13.640;2022-08-11T06:32:43;101011.41;;;19.85;52.02
43846;BME280;32485;51.112;13.640;2022-08-11T06:35:18;101016.19;;;19.92;51.65
43846;BME280;32485;51.112;13.640;2022-08-11T06:38:03;101017.56;;;20.01;51.25
43846;BME280;32485;51.112;13.640;2022-08-11T06:40:37;101023.97;;;20.09;51.22
43846;BME280;32485;51.112;13.640;2022-08-11T06:43:17;101025.25;;;20.15;50.91
43846;BME280;32485;51.112;13.640;2022-08-11T06:45:56;101023.81;;;20.22;50.82
43846;BME280;32485;51.112;13.640;2022-08-11T06:48:30;101016.38;;;20.22;50.65
43846;BME280;32485;51.112;13.640;2022-08-11T06:51:02;101012.50;;;20.27;50.98
43846;BME280;32485;51.112;13.640;2022-08-11T06:53:41;101021.97;;;20.29;50.89
43846;BME280;32485;51.112;13.640;2022-08-11T06:56:10;101022.94;;;20.41;50.47
43846;BME280;32485;51.112;13.640;2022-08-11T06:58:59;101027.03;;;20.50;50.01
43846;BME280;32485;51.112;13.640;2022-08-11T07:01:54;101021.63;;;20.54;49.69
43846;BME280;32485;51.112;13.640;2022-08-11T07:04:30;101018.19;;;20.61;49.58
43846;BME280;32485;51.112;13.640;2022-08-11T07:07:22;101022.56;;;20.65;49.46
43846;BME280;32485;51.112;13.640;2022-08-11T07:10:32;101020.44;;;20.78;49.13
43846;BME280;32485;51.112;13.640;2022-08-11T07:13:22;101017.41;;;20.83;48.84
43846;BME280;32485;51.112;13.640;2022-08-11T07:16:10;101017.13;;;20.92;48.58
43846;BME280;32485;51.112;13.640;2022-08-11T07:18:41;101018.03;;;21.00;48.86
43846;BME280;32485;51.112;13.640;2022-08-11T07:21:29;101019.28;;;21.06;48.53
43846;BME280;32485;51.112;13.640;2022-08-11T07:24:17;101017.38;;;21.10;48.22
43846;BME280;32485;51.112;13.640;2022-08-11T07:27:18;101017.06;;;21.15;48.06
43846;BME280;32485;51.112;13.640;2022-08-11T07:30:08;101017.53;;;21.21;47.88
43846;BME280;32485;51.112;13.640;2022-08-11T07:32:48;101026.75;;;21.36;47.32
43846;BME280;32485;51.112;13.640;2022-08-11T07:35:20;101004.81;;;21.39;47.20
43846;BME280;32485;51.112;13.640;2022-08-11T07:37:56;101006.91;;;21.50;47.11
43846;BME280;32485;51.112;13.640;2022-08-11T07:40:24;101007.44;;;21.59;46.94
43846;BME280;32485;51.112;13.640;2022-08-11T07:42:53;101005.06;;;21.58;46.68
43846;BME280;32485;51.112;13.640;2022-08-11T07:45:22;101013.84;;;21.70;46.41
43846;BME280;32485;51.112;13.640;2022-08-11T07:48:10;101010.41;;;21.77;46.29
43846;BME280;32485;51.112;13.640;2022-08-11T07:50:56;101004.22;;;21.87;46.38
43846;BME280;32485;51.112;13.640;2022-08-11T07:53:41;101008.63;;;21.96;46.45
43846;BME280;32485;51.112;13.640;2022-08-11T07:56:09;100997.63;;;21.99;45.95
43846;BME280;32485;51.112;13.640;2022-08-11T07:58:41;101000.81;;;22.01;45.93
43846;BME280;32485;51.112;13.640;2022-08-11T08:01:27;101002.47;;;22.10;45.93
43846;BME280;32485;51.112;13.640;2022-08-11T08:04:17;100997.41;;;22.15;45.89
43846;BME280;32485;51.112;13.640;2022-08-11T08:07:04;101007.72;;;22.25;46.03
43846;BME280;32485;51.112;13.640;2022-08-11T08:09:49;100987.28;;;22.30;45.92
43846;BME280;32485;51.112;13.640;2022-08-11T08:12:35;100991.38;;;22.44;45.59
43846;BME280;32485;51.112;13.640;2022-08-11T08:15:21;100990.28;;;22.55;45.35
43846;BME280;32485;51.112;13.640;2022-08-11T08:18:07;100984.06;;;22.66;45.46
43846;BME280;32485;51.112;13.640;2022-08-11T08:20:42;100971.94;;;22.74;45.01
43846;BME280;32485;51.112;13.640;2022-08-11T08:23:11;100968.78;;;22.79;44.09
43846;BME280;32485;51.112;13.640;2022-08-11T08:25:41;100965.72;;;22.88;43.25
43846;BME280;32485;51.112;13.640;2022-08-11T08:28:11;100979.16;;;22.97;43.73
43846;BME280;32485;51.112;13.640;2022-08-11T08:30:42;100967.00;;;23.05;43.60
43846;BME280;32485;51.112;13.640;2022-08-11T08:33:19;100972.13;;;23.10;43.02
43846;BME280;32485;51.112;13.640;2022-08-11T08:35:52;100970.63;;;23.20;42.83
43846;BME280;32485;51.112;13.640;2022-08-11T08:38:38;100958.84;;;23.26;42.42
43846;BME280;32485;51.112;13.640;2022-08-11T08:41:05;100950.97;;;23.29;42.15
43846;BME280;32485;51.112;13.640;2022-08-11T08:43:34;100953.34;;;23.41;41.35
43846;BME280;32485;51.112;13.640;2022-08-11T08:46:08;100956.53;;;23.43;41.27
43846;BME280;32485;51.112;13.640;2022-08-11T08:48:36;100957.75;;;23.60;40.83
43846;BME280;32485;51.112;13.640;2022-08-11T08:51:10;100954.22;;;23.77;39.46
43846;BME280;32485;51.112;13.640;2022-08-11T08:54:03;100949.94;;;23.84;38.78
43846;BME280;32485;51.112;13.640;2022-08-11T08:56:32;100942.44;;;23.84;39.48
43846;BME280;32485;51.112;13.640;2022-08-11T08:59:01;100949.16;;;24.08;37.51
43846;BME280;32485;51.112;13.640;2022-08-11T09:01:32;100937.34;;;24.29;37.62
43846;BME280;32485;51.112;13.640;2022-08-11T09:04:06;100940.47;;;24.46;38.57
43846;BME280;32485;51.112;13.640;2022-08-11T09:06:35;100936.91;;;24.71;38.02
43846;BME280;32485;51.112;13.640;2022-08-11T09:09:05;100933.31;;;24.92;37.72
43846;BME280;32485;51.112;13.640;2022-08-11T09:11:33;100942.31;;;25.14;37.41
43846;BME280;32485;51.112;13.640;2022-08-11T09:14:19;100945.34;;;25.45;36.67
43846;BME280;32485;51.112;13.640;2022-08-11T09:16:49;100943.25;;;25.63;35.35
43846;BME280;32485;51.112;13.640;2022-08-11T09:19:19;100946.38;;;25.69;36.09
43846;BME280;32485;51.112;13.640;2022-08-11T09:21:50;100945.13;;;25.81;35.58
43846;BME280;32485;51.112;13.640;2022-08-11T09:24:38;100943.44;;;25.98;34.85
43846;BME280;32485;51.112;13.640;2022-08-11T09:27:23;100938.97;;;26.15;35.24
43846;BME280;32485;51.112;13.640;2022-08-11T09:29:52;100936.84;;;26.30;34.50
43846;BME280;32485;51.112;13.640;2022-08-11T09:32:21;100924.00;;;26.47;34.40
43846;BME280;32485;51.112;13.640;2022-08-11T09:34:50;100923.06;;;26.64;34.13
43846;BME280;32485;51.112;13.640;2022-08-11T09:37:20;100934.13;;;26.68;32.31
43846;BME280;32485;51.112;13.640;2022-08-11T09:40:08;100926.66;;;26.61;32.71
43846;BME280;32485;51.112;13.640;2022-08-11T09:42:55;100926.34;;;26.52;32.85
43846;BME280;32485;51.112;13.640;2022-08-11T09:45:42;100922.03;;;26.47;33.03
43846;BME280;32485;51.112;13.640;2022-08-11T09:48:11;100927.94;;;26.49;34.38
43846;BME280;32485;51.112;13.640;2022-08-11T09:50:38;100921.47;;;26.63;33.39
43846;BME280;32485;51.112;13.640;2022-08-11T09:53:09;100919.81;;;26.73;33.60
43846;BME280;32485;51.112;13.640;2022-08-11T09:55:38;100912.56;;;26.83;33.47
43846;BME280;32485;51.112;13.640;2022-08-11T09:58:05;100912.06;;;26.92;32.74
43846;BME280;32485;51.112;13.640;2022-08-11T10:00:44;100913.88;;;27.06;33.00
43846;BME280;32485;51.112;13.640;2022-08-11T10:03:16;100906.25;;;27.13;31.74
43846;BME280;32485;51.112;13.640;2022-08-11T10:05:48;100897.06;;;27.20;32.85
43846;BME280;32485;51.112;13.640;2022-08-11T10:08:37;100900.81;;;27.33;32.68
43846;BME280;32485;51.112;13.640;2022-08-11T10:11:07;100904.75;;;27.40;31.86
43846;BME280;32485;51.112;13.640;2022-08-11T10:13:40;100902.53;;;27.24;31.21
43846;BME280;32485;51.112;13.640;2022-08-11T10:16:25;100897.72;;;27.00;32.04
43846;BME280;32485;51.112;13.640;2022-08-11T10:18:54;100912.00;;;26.99;32.19
43846;BME280;32485;51.112;13.640;2022-08-11T10:21:26;100905.38;;;26.89;32.37
43846;BME280;32485;51.112;13.640;2022-08-11T10:27:39;100902.50;;;26.96;33.56
43846;BME280;32485;51.112;13.640;2022-08-11T10:30:10;100894.78;;;27.11;32.27
43846;BME280;32485;51.112;13.640;2022-08-11T10:32:56;100900.31;;;27.11;31.91
43846;BME280;32485;51.112;13.640;2022-08-11T10:35:43;100898.81;;;27.07;32.59
43846;BME280;32485;51.112;13.640;2022-08-11T10:38:13;100894.09;;;27.04;32.55
43846;BME280;32485;51.112;13.640;2022-08-11T10:40:45;100892.63;;;26.95;31.94
43846;BME280;32485;51.112;13.640;2022-08-11T10:43:38;100890.50;;;27.07;31.65
43846;BME280;32485;51.112;13.640;2022-08-11T10:46:07;100876.50;;;27.14;31.75
43846;BME280;32485;51.112;13.640;2022-08-11T10:48:54;100867.00;;;27.15;32.30
43846;BME280;32485;51.112;13.640;2022-08-11T10:51:23;100877.13;;;27.29;31.50
43846;BME280;32485;51.112;13.640;2022-08-11T10:54:09;100861.16;;;27.37;31.69
43846;BME280;32485;51.112;13.640;2022-08-11T10:56:55;100865.41;;;27.45;32.18
43846;BME280;32485;51.112;13.640;2022-08-11T10:59:40;100863.63;;;27.58;30.74
43846;BME280;32485;51.112;13.640;2022-08-11T11:02:10;100852.56;;;27.55;30.58
43846;BME280;32485;51.112;13.640;2022-08-11T11:04:56;100861.63;;;27.59;30.45
43846;BME280;32485;51.112;13.640;2022-08-11T11:07:36;100860.22;;;27.47;30.78
43846;BME280;32485;51.112;13.640;2022-08-11T11:10:05;100856.88;;;27.28;30.97
43846;BME280;32485;51.112;13.640;2022-08-11T11:12:39;100847.13;;;27.20;31.41
43846;BME280;32485;51.112;13.640;2022-08-11T11:15:29;100848.66;;;27.21;31.40
43846;BME280;32485;51.112;13.640;2022-08-11T11:18:19;100840.66;;;27.27;30.84
43846;BME280;32485;51.112;13.640;2022-08-11T11:20:53;100857.19;;;27.38;29.02
43846;BME280;32485;51.112;13.640;2022-08-11T11:23:27;100842.78;;;27.46;28.23
43846;BME280;32485;51.112;13.640;2022-08-11T11:26:36;100841.53;;;27.51;27.89
43846;BME280;32485;51.112;13.640;2022-08-11T11:29:45;100840.81;;;27.47;28.24
43846;BME280;32485;51.112;13.640;2022-08-11T11:32:40;100845.03;;;27.55;28.11
43846;BME280;32485;51.112;13.640;2022-08-11T11:35:19;100836.09;;;27.67;27.96
43846;BME280;32485;51.112;13.640;2022-08-11T11:37:52;100831.25;;;27.72;28.22
43846;BME280;32485;51.112;13.640;2022-08-11T11:40:22;100827.53;;;27.82;28.50
43846;BME280;32485;51.112;13.640;2022-08-11T11:42:53;100831.25;;;27.95;27.45
43846;BME280;32485;51.112;13.640;2022-08-11T11:45:23;100829.19;;;28.03;27.22
43846;BME280;32485;51.112;13.640;2022-08-11T11:47:53;100824.03;;;28.01;27.31
43846;BME280;32485;51.112;13.640;2022-08-11T11:50:26;100826.31;;;28.07;26.49
43846;BME280;32485;51.112;13.640;2022-08-11T11:52:54;100827.84;;;28.11;26.05
43846;BME280;32485;51.112;13.640;2022-08-11T11:55:23;100821.06;;;28.12;26.80
43846;BME280;32485;51.112;13.640;2022-08-11T11:57:52;100825.84;;;28.12;25.35
43846;BME280;32485;51.112;13.640;2022-08-11T12:00:39;100813.28;;;28.03;25.60
43846;BME280;32485;51.112;13.640;2022-08-11T12:03:24;100817.16;;;28.10;25.00
43846;BME280;32485;51.112;13.640;2022-08-11T12:05:52;100810.03;;;28.09;25.81
43846;BME280;32485;51.112;13.640;2022-08-11T12:08:20;100810.78;;;28.09;26.68
43846;BME280;32485;51.112;13.640;2022-08-11T12:10:52;100801.25;;;28.10;26.26
43846;BME280;32485;51.112;13.640;2022-08-11T12:13:45;100798.63;;;28.23;25.42
43846;BME280;32485;51.112;13.640;2022-08-11T12:16:15;100801.78;;;28.25;25.66
43846;BME280;32485;51.112;13.640;2022-08-11T12:18:47;100811.03;;;28.38;25.19
43846;BME280;32485;51.112;13.640;2022-08-11T12:21:15;100791.69;;;28.51;25.40
43846;BME280;32485;51.112;13.640;2022-08-11T12:23:45;100798.97;;;28.65;24.19
43846;BME280;32485;51.112;13.640;2022-08-11T12:26:32;100792.44;;;28.76;23.69
43846;BME280;32485;51.112;13.640;2022-08-11T12:29:20;100796.25;;;28.82;24.70
43846;BME280;32485;51.112;13.640;2022-08-11T12:31:54;100783.59;;;28.97;24.10
43846;BME280;32485;51.112;13.640;2022-08-11T12:34:26;100790.81;;;29.11;24.14
43846;BME280;32485;51.112;13.640;2022-08-11T12:36:57;100783.44;;;29.21;24.47
43846;BME280;32485;51.112;13.640;2022-08-11T12:39:27;100775.72;;;29.29;24.46
43846;BME280;32485;51.112;13.640;2022-08-11T12:42:17;100774.75;;;29.35;24.58
43846;BME280;32485;51.112;13.640;2022-08-11T12:45:06;100779.88;;;29.37;24.47
43846;BME280;32485;51.112;13.640;2022-08-11T12:48:05;100780.00;;;29.33;24.16
43846;BME280;32485;51.112;13.640;2022-08-11T12:50:55;100760.25;;;29.28;23.66
43846;BME280;32485;51.112;13.640;2022-08-11T12:53:49;100763.28;;;29.33;23.16
43846;BME280;32485;51.112;13.640;2022-08-11T12:56:18;100757.28;;;29.35;23.38
43846;BME280;32485;51.112;13.640;2022-08-11T12:59:05;100759.00;;;29.45;22.97
43846;BME280;32485;51.112;13.640;2022-08-11T13:01:51;100759.00;;;29.62;23.20
43846;BME280;32485;51.112;13.640;2022-08-11T13:04:39;100755.81;;;29.76;22.38
43846;BME280;32485;51.112;13.640;2022-08-11T13:07:21;100746.66;;;29.92;22.05
43846;BME280;32485;51.112;13.640;2022-08-11T13:09:49;100738.97;;;29.96;22.62
43846;BME280;32485;51.112;13.640;2022-08-11T13:12:17;100732.13;;;30.14;21.78
43846;BME280;32485;51.112;13.640;2022-08-11T13:15:03;100731.47;;;30.22;22.30
43846;BME280;32485;51.112;13.640;2022-08-11T13:17:30;100737.31;;;30.41;21.75
43846;BME280;32485;51.112;13.640;2022-08-11T13:20:01;100734.69;;;30.50;21.28
43846;BME280;32485;51.112;13.640;2022-08-11T13:22:29;100734.81;;;30.60;21.57
43846;BME280;32485;51.112;13.640;2022-08-11T13:24:57;100738.81;;;30.71;21.76
43846;BME280;32485;51.112;13.640;2022-08-11T13:27:25;100733.69;;;30.83;21.92
43846;BME280;32485;51.112;13.640;2022-08-11T13:29:52;100727.88;;;30.90;21.43
43846;BME280;32485;51.112;13.640;2022-08-11T13:32:43;100722.88;;;30.85;21.47
43846;BME280;32485;51.112;13.640;2022-08-11T13:35:13;100730.88;;;30.83;21.25
43846;BME280;32485;51.112;13.640;2022-08-11T13:37:43;100726.09;;;30.70;20.64
43846;BME280;32485;51.112;13.640;2022-08-11T13:40:12;100719.75;;;30.57;21.48
43846;BME280;32485;51.112;13.640;2022-08-11T13:42:40;100713.13;;;30.51;21.99
43846;BME280;32485;51.112;13.640;2022-08-11T13:45:09;100707.00;;;30.56;22.33
43846;BME280;32485;51.112;13.640;2022-08-11T13:47:37;100715.16;;;30.63;21.75
43846;BME280;32485;51.112;13.640;2022-08-11T13:50:07;100718.25;;;30.52;21.34
43846;BME280;32485;51.112;13.640;2022-08-11T13:52:36;100706.59;;;30.15;21.59
43846;BME280;32485;51.112;13.640;2022-08-11T13:55:07;100716.16;;;30.01;22.39
43846;BME280;32485;51.112;13.640;2022-08-11T13:57:36;100712.56;;;29.88;22.01
43846;BME280;32485;51.112;13.640;2022-08-11T14:00:08;100709.34;;;29.73;22.32
43846;BME280;32485;51.112;13.640;2022-08-11T14:02:40;100707.22;;;29.64;22.78
43846;BME280;32485;51.112;13.640;2022-08-11T14:05:12;100698.50;;;29.62;22.92
43846;BME280;32485;51.112;13.640;2022-08-11T14:07:48;100694.50;;;29.63;22.42
43846;BME280;32485;51.112;13.640;2022-08-11T14:10:20;100696.84;;;29.65;23.61
43846;BME280;32485;51.112;13.640;2022-08-11T14:12:54;100686.91;;;29.64;23.01
43846;BME280;32485;51.112;13.640;2022-08-11T14:15:43;100693.59;;;29.66;22.92
43846;BME280;32485;51.112;13.640;2022-08-11T14:18:16;100693.59;;;29.66;23.32
43846;BME280;32485;51.112;13.640;2022-08-11T14:20:49;100693.16;;;29.84;23.59
43846;BME280;32485;51.112;13.640;2022-08-11T14:23:39;100680.38;;;30.13;23.17
43846;BME280;32485;51.112;13.640;2022-08-11T14:26:09;100670.16;;;30.35;22.85
43846;BME280;32485;51.112;13.640;2022-08-11T14:29:00;100686.03;;;30.64;23.17
43846;BME280;32485;51.112;13.640;2022-08-11T14:31:30;100673.50;;;30.82;22.84
43846;BME280;32485;51.112;13.640;2022-08-11T14:34:01;100681.09;;;30.94;22.32
43846;BME280;32485;51.112;13.640;2022-08-11T14:36:31;100680.97;;;31.11;22.48
43846;BME280;32485;51.112;13.640;2022-08-11T14:39:06;100675.91;;;31.31;21.20